Bordeaux-Mérignac Airport

LFBD · Gironde, Nouvelle-Aquitaine, France

METAR history LFBD · Bordeaux-Mérignac Airport

Below you see METARs of the last few days. Select a year to browse through older METARs, from the year 2007 onwards.

December 2, 2022

Time Code Weather Temp. Visibility Ceiling Wind METAR/SPECI
13:30
M
7 °C 10 km+ 1,700 ft 030° 030° 7 kt METAR LFBD 021230Z AUTO 03007KT 360V060 9999 BKN017 BKN022 OVC038 07/04 Q1017 NOSIG
13:00
M
7 °C 10 km+ 1,700 ft 030° 030° 7 kt METAR LFBD 021200Z AUTO 03007KT 9999 BKN017 OVC038 07/03 Q1017 NOSIG
12:30
V
7 °C 10 km+ 3,700 ft 030° 030° 8 kt METAR LFBD 021130Z AUTO 03008KT 9999 FEW019 OVC037 07/03 Q1018 NOSIG
12:00
V
7 °C 10 km+ 3,800 ft 040° 040° 8 kt METAR LFBD 021100Z AUTO 04008KT 9999 OVC038 07/03 Q1018 NOSIG
11:30
V
7 °C 10 km+ 3,900 ft 040° 040° 8 kt METAR LFBD 021030Z AUTO 04008KT 010V070 9999 OVC039 07/04 Q1018 NOSIG
11:00
V
7 °C 10 km+ 4,000 ft 040° 040° 8 kt METAR LFBD 021000Z AUTO 04008KT 9999 OVC040 07/04 Q1019 NOSIG
10:30
V
7 °C 10 km+ 4,000 ft 040° 040° 7 kt METAR LFBD 020930Z AUTO 04007KT 9999 OVC040 07/04 Q1019 NOSIG
10:00
V
6 °C 10 km+ 4,100 ft 040° 040° 5 kt METAR LFBD 020900Z AUTO 04005KT 9999 OVC041 06/04 Q1019 NOSIG
09:30
V
6 °C 10 km+ 4,000 ft 030° 030° 5 kt METAR LFBD 020830Z AUTO 03005KT 9999 OVC040 06/04 Q1019 NOSIG
09:00
V
6 °C 9 km 4,000 ft 040° 040° 5 kt METAR LFBD 020800Z AUTO 04005KT 360V060 9000 OVC040 06/04 Q1019 NOSIG
08:30
V
6 °C 9 km 4,200 ft 040° 040° 5 kt METAR LFBD 020730Z AUTO 04005KT 9000 OVC042 06/04 Q1019 NOSIG
08:00
V
6 °C 8 km 4,400 ft 040° 040° 5 kt METAR LFBD 020700Z AUTO 04005KT 8000 OVC044 06/04 Q1019 TEMPO 3000 BR
07:30
M
5 °C 7 km 4,500 ft 040° 040° 5 kt METAR LFBD 020630Z AUTO 04005KT 7000 OVC045 05/04 Q1019 TEMPO 3000 BR
07:00
M
5 °C 7 km 4,600 ft 030° 030° 5 kt METAR LFBD 020600Z AUTO 03005KT 350V060 7000 OVC046 05/04 Q1019 TEMPO 3000 BR
06:30
M
5 °C 7 km 4,800 ft 030° 030° 5 kt METAR LFBD 020530Z AUTO 03005KT 320V070 7000 OVC048 05/04 Q1019 TEMPO 3000 BR
06:00
M
5 °C 7 km 4,800 ft 030° 030° 5 kt METAR LFBD 020500Z AUTO 03005KT 7000 OVC048 05/04 Q1019 TEMPO 3000 BR
05:30
M
5 °C 6 km 4,900 ft 030° 030° 6 kt METAR LFBD 020430Z AUTO 03006KT 6000 BKN049 05/04 Q1019 TEMPO 3000 BR
05:00
M
5 °C 6 km 4,700 ft 020° 020° 6 kt METAR LFBD 020400Z AUTO 02006KT 6000 FEW008 BKN047 05/04 Q1019 TEMPO 3000 BR
04:30
M
6 °C 7 km 4,600 ft 020° 020° 7 kt METAR LFBD 020330Z AUTO 02007KT 7000 OVC046 06/04 Q1019 TEMPO 3000 BR
04:00
M
6 °C 7 km 4,500 ft 020° 020° 6 kt METAR LFBD 020300Z AUTO 02006KT 7000 BKN045 06/04 Q1020 TEMPO 3000 BR
03:30
V
6 °C 8 km 4,500 ft 030° 030° 6 kt METAR LFBD 020230Z AUTO 03006KT 8000 OVC045 06/04 Q1020 TEMPO 3000 BR
03:00
V
7 °C 9 km 4,500 ft 030° 030° 7 kt METAR LFBD 020200Z AUTO 03007KT 9000 OVC045 07/05 Q1020 TEMPO 0400 FG VV///
02:30
V
7 °C 9 km 4,500 ft 020° 020° 6 kt METAR LFBD 020130Z AUTO 02006KT 9000 OVC045 07/05 Q1020 TEMPO 0400 FG VV///
02:00
V
7 °C 10 km+ 4,500 ft 010° 010° 5 kt METAR LFBD 020100Z AUTO 01005KT 9999 OVC045 07/05 Q1020 TEMPO 3000 BR
01:30
V
7 °C 10 km+ 4,500 ft 030° 030° 3 kt METAR LFBD 020030Z AUTO 03003KT 9999 OVC045 07/05 Q1020 TEMPO 3000 BR
01:00
V
7 °C 10 km+ 4,400 ft 040° 040° 5 kt METAR LFBD 020000Z AUTO 04005KT 9999 OVC044 07/04 Q1021 TEMPO 3000 BR
00:30
V
7 °C 10 km+ 4,400 ft 020° 020° 6 kt METAR LFBD 012330Z AUTO 02006KT 9999 OVC044 07/04 Q1021 BECMG 3000 BR
00:00
V
6 °C 10 km+ 4,300 ft 030° 030° 3 kt METAR LFBD 012300Z AUTO 03003KT 9999 OVC043 06/04 Q1021 BECMG 3000 BR

December 1, 2022

Time Code Weather Temp. Visibility Ceiling Wind METAR/SPECI
23:30
V
6 °C 9 km 4,300 ft 030° 030° 5 kt METAR LFBD 012230Z AUTO 03005KT 9000 OVC043 06/04 Q1021 BECMG 3000 BR
23:00
V
5 °C 8 km 4,500 ft Var Var 2 kt METAR LFBD 012200Z AUTO VRB02KT 8000 OVC045 05/04 Q1021 BECMG 3000 BR
22:30
V
5 °C 8 km 4,800 ft Var Var 3 kt METAR LFBD 012130Z AUTO VRB03KT 8000 OVC048 05/04 Q1021 BECMG 3000 BR
22:00
M
5 °C 7 km 4,800 ft 360° 360° 4 kt METAR LFBD 012100Z AUTO 36004KT 330V060 7000 OVC048 05/04 Q1021 NOSIG
21:30
M
5 °C 7 km - 350° 350° 3 kt METAR LFBD 012030Z AUTO 35003KT 330V070 7000 FEW048 05/04 Q1021 NOSIG
21:00
V
5 °C 8 km - 360° 360° 3 kt METAR LFBD 012000Z AUTO 36003KT 320V110 8000 FEW046 05/04 Q1021 NOSIG
20:30
V
6 °C 10 km+ - 020° 020° 4 kt METAR LFBD 011930Z AUTO 02004KT CAVOK 06/04 Q1021 NOSIG
20:00
V
6 °C 10 km+ - 020° 020° 6 kt METAR LFBD 011900Z AUTO 02006KT CAVOK 06/04 Q1021 NOSIG
19:30
V
7 °C 10 km+ - 030° 030° 8 kt METAR LFBD 011830Z AUTO 03008KT 9999 FEW045 07/04 Q1021 NOSIG
19:00
V
8 °C 10 km+ 4,400 ft 020° 020° 9 kt METAR LFBD 011800Z AUTO 02009KT 9999 BKN044 08/05 Q1021 NOSIG
18:30
V
8 °C 10 km+ 4,200 ft 020° 020° 9 kt METAR LFBD 011730Z AUTO 02009KT 9999 OVC042 08/05 Q1021 NOSIG
18:00
V
8 °C 10 km+ 4,200 ft 020° 020° 8 kt METAR LFBD 011700Z AUTO 02008KT 340V040 9999 OVC042 08/05 Q1021 NOSIG
17:30
V
9 °C 10 km+ 4,000 ft 020° 020° 10 kt METAR LFBD 011630Z AUTO 02010KT 9999 OVC040 09/05 Q1021 NOSIG
17:00
V
9 °C 10 km+ 3,700 ft 010° 010° 8 kt METAR LFBD 011600Z AUTO 01008KT 9999 FEW029 BKN037 09/05 Q1020 NOSIG
16:30
V
10 °C 10 km+ 3,900 ft 010° 010° 10 kt METAR LFBD 011530Z AUTO 01010KT 9999 FEW027 BKN039 10/05 Q1020 NOSIG
16:00
V
10 °C 10 km+ 3,600 ft 010° 010° 7 kt METAR LFBD 011500Z AUTO 01007KT 350V060 9999 FEW024 BKN036 10/05 Q1020 NOSIG
15:30
V
11 °C 10 km+ 3,300 ft 350° 350° 10 kt METAR LFBD 011430Z AUTO 35010KT 320V040 9999 SCT024 BKN033 11/06 Q1020 NOSIG
15:00
V
10 °C 10 km+ 3,700 ft 010° 010° 11 kt METAR LFBD 011400Z AUTO 01011KT 340V050 9999 FEW028 BKN037 10/05 Q1020 NOSIG
14:30
M
11 °C 10 km+ 2,900 ft 010° 010° 10 kt METAR LFBD 011330Z AUTO 01010KT 9999 BKN029 BKN038 11/05 Q1021 NOSIG
14:00
V
11 °C 10 km+ - 030° 030° 10 kt METAR LFBD 011300Z AUTO 03010KT 360V060 9999 FEW027 11/05 Q1021 NOSIG
13:30
V
10 °C 10 km+ - 030° 030° 11 kt METAR LFBD 011230Z AUTO 03011KT 9999 FEW024 10/05 Q1021 NOSIG
13:00
V
10 °C 10 km+ - 030° 030° 10 kt METAR LFBD 011200Z AUTO 03010KT 010V070 9999 SCT023 10/05 Q1021 NOSIG
12:30
V
10 °C 10 km+ - 020° 020° 9 kt METAR LFBD 011130Z AUTO 02009KT 330V050 9999 SCT020 10/05 Q1021 NOSIG
12:00
V
9 °C 10 km+ - 020° 020° 9 kt METAR LFBD 011100Z AUTO 02009KT 350V050 9999 FEW019 09/05 Q1022 TEMPO BKN010
11:30
V
8 °C 10 km+ - 020° 020° 7 kt METAR LFBD 011030Z AUTO 02007KT CAVOK 08/05 Q1022 TEMPO BKN010
11:00
V
7 °C 10 km+ - 030° 030° 7 kt METAR LFBD 011000Z AUTO 03007KT CAVOK 07/05 Q1022 TEMPO BKN010
10:30
V
6 °C 9 km - 030° 030° 6 kt METAR LFBD 010930Z AUTO 03006KT 9000 NSC 06/05 Q1022 TEMPO BKN010
10:00
V
5 °C 8 km - 030° 030° 6 kt METAR LFBD 010900Z AUTO 03006KT 8000 NSC 05/04 Q1022 TEMPO BKN010
09:30
V
5 °C 8 km - 010° 010° 5 kt METAR LFBD 010830Z AUTO 01005KT 320V050 8000 NSC 05/04 Q1022 TEMPO BKN010
09:00
I
4 °C 1.7 km - 030° 030° 4 kt METAR LFBD 010800Z AUTO 03004KT 7000 1700 NSC 04/03 Q1021 TEMPO 2000 MIFG BKN010
08:30
V
3 °C 8 km - 020° 020° 4 kt METAR LFBD 010730Z AUTO 02004KT 8000 NSC 03/03 Q1021 TEMPO 2000 MIFG BKN010
08:00
V
3 °C 9 km - 040° 040° 6 kt METAR LFBD 010700Z AUTO 04006KT 9000 NSC 03/03 Q1021 TEMPO 2000 MIFG
07:30
V
3 °C 8 km - 030° 030° 4 kt METAR LFBD 010630Z AUTO 03004KT 8000 NSC 03/03 Q1021 TEMPO 2000 MIFG
07:00
V
4 °C 10 km+ - 020° 020° 5 kt METAR LFBD 010600Z AUTO 02005KT CAVOK 04/03 Q1021 TEMPO 2000 MIFG
06:30
V
3 °C 10 km+ - 020° 020° 4 kt METAR LFBD 010530Z AUTO 02004KT 360V070 CAVOK 03/03 Q1021 TEMPO 2000 MIFG
06:00
V
4 °C 10 km+ - 030° 030° 4 kt METAR LFBD 010500Z AUTO 03004KT CAVOK 04/03 Q1021 TEMPO 0500 FG
05:30
V
4 °C 10 km+ - 020° 020° 4 kt METAR LFBD 010430Z AUTO 02004KT CAVOK 04/03 Q1021 TEMPO 0500 FG
05:00
V
4 °C 10 km+ - 020° 020° 4 kt METAR LFBD 010400Z AUTO 02004KT CAVOK 04/03 Q1021 TEMPO 0500 FG
04:30
V
4 °C 10 km+ - 030° 030° 5 kt METAR LFBD 010330Z AUTO 03005KT CAVOK 04/03 Q1021 TEMPO 0500 FG
04:00
V
4 °C 10 km+ - 020° 020° 5 kt METAR LFBD 010300Z AUTO 02005KT CAVOK 04/03 Q1020 NOSIG
03:30
V
4 °C 10 km+ - 030° 030° 5 kt METAR LFBD 010230Z AUTO 03005KT CAVOK 04/03 Q1020 NOSIG
03:00
V
4 °C 10 km+ - 020° 020° 3 kt METAR LFBD 010200Z AUTO 02003KT CAVOK 04/03 Q1020 TEMPO 1500 MIFG
02:30
V
4 °C 10 km+ - 030° 030° 3 kt METAR LFBD 010130Z AUTO 03003KT CAVOK 04/03 Q1020 TEMPO 1500 MIFG
02:00
V
5 °C 10 km+ - 030° 030° 5 kt METAR LFBD 010100Z AUTO 03005KT CAVOK 05/03 Q1020 TEMPO 1500 MIFG
01:30
V
5 °C 10 km+ - 020° 020° 6 kt METAR LFBD 010030Z AUTO 02006KT CAVOK 05/04 Q1020 TEMPO 1500 MIFG
01:00
V
5 °C 10 km+ - 030° 030° 6 kt METAR LFBD 010000Z AUTO 03006KT CAVOK 05/04 Q1020 TEMPO 1500 MIFG
00:30
V
5 °C 10 km+ - 030° 030° 6 kt METAR LFBD 302330Z AUTO 03006KT CAVOK 05/04 Q1020 TEMPO 1500 MIFG
00:00
I
5 °C 2.9 km - 020° 020° 5 kt METAR LFBD 302300Z AUTO 02005KT 9000 2900 R05/1200U NSC 05/04 Q1020 TEMPO 3000 MIFG

November 30, 2022

Time Code Weather Temp. Visibility Ceiling Wind METAR/SPECI
23:30
I
5 °C 2.6 km - 020° 020° 5 kt METAR LFBD 302230Z AUTO 02005KT 9999 2600 NSC 05/04 Q1020 TEMPO 3000 MIFG
23:00
V
6 °C 10 km+ - 030° 030° 7 kt METAR LFBD 302200Z AUTO 03007KT CAVOK 06/05 Q1020 NOSIG
22:30
V
6 °C 10 km+ - 030° 030° 7 kt METAR LFBD 302130Z AUTO 03007KT CAVOK 06/05 Q1020 NOSIG
22:00
I
6 °C 2.7 km - 040° 040° 6 kt METAR LFBD 302100Z AUTO 04006KT 9000 2700 NSC 06/05 Q1019 NOSIG
21:30
I
6 °C 3.6 km - 040° 040° 6 kt METAR LFBD 302030Z AUTO 04006KT 9000 3600 NSC 06/05 Q1019 NOSIG
21:00
V
6 °C 9 km - 030° 030° 4 kt METAR LFBD 302000Z AUTO 03004KT 340V040 9000 NSC 06/05 Q1019 NOSIG
20:30
V
6 °C 10 km+ - 020° 020° 5 kt METAR LFBD 301930Z AUTO 02005KT CAVOK 06/05 Q1019 NOSIG
20:00
L
6 °C 650 m - 020° 020° 3 kt METAR LFBD 301900Z AUTO 02003KT 9000 0650 R23/P2300 R05/1000D R29/P2300 BCFG NSC 06/05 Q1019 NOSIG
19:30
I
6 °C 4.5 km - 030° 030° 5 kt METAR LFBD 301830Z AUTO 03005KT 9999 4500 NSC 06/05 Q1019 NOSIG
19:00
V
6 °C 10 km+ - 010° 010° 3 kt METAR LFBD 301800Z AUTO 01003KT 300V020 CAVOK 06/05 Q1019 NOSIG
18:30
I
5 °C 3.4 km - Var Var 2 kt METAR LFBD 301730Z AUTO VRB02KT 9999 3400 NSC 05/04 Q1019 NOSIG
18:00
V
6 °C 10 km+ - Var Var 3 kt METAR LFBD 301700Z AUTO VRB03KT CAVOK 06/04 Q1018 NOSIG
17:30
V
8 °C 10 km+ - 090° 090° 3 kt METAR LFBD 301630Z AUTO 09003KT CAVOK 08/05 Q1018 NOSIG
17:00
V
9 °C 10 km+ - 080° 080° 5 kt METAR LFBD 301600Z AUTO 08005KT CAVOK 09/05 Q1018 NOSIG
16:30
V
9 °C 10 km+ - 060° 060° 4 kt METAR LFBD 301530Z AUTO 06004KT CAVOK 09/05 Q1018 NOSIG
16:00
V
9 °C 10 km+ - 060° 060° 6 kt METAR LFBD 301500Z AUTO 06006KT CAVOK 09/05 Q1018 NOSIG
15:30
V
9 °C 10 km+ - 050° 050° 6 kt METAR LFBD 301430Z AUTO 05006KT 020V090 CAVOK 09/04 Q1018 NOSIG
15:00
V
8 °C 10 km+ - 050° 050° 6 kt METAR LFBD 301400Z AUTO 05006KT CAVOK 08/04 Q1018 NOSIG
14:30
V
8 °C 10 km+ - 060° 060° 5 kt METAR LFBD 301330Z AUTO 06005KT 030V100 9999 FEW015 08/05 Q1018 NOSIG
14:00
V
8 °C 10 km+ - 040° 040° 5 kt METAR LFBD 301300Z AUTO 04005KT 9999 FEW013 08/05 Q1019 NOSIG
13:30
M
8 °C 10 km+ 1,200 ft 040° 040° 4 kt METAR LFBD 301230Z AUTO 04004KT 020V080 9999 BKN012 08/06 Q1019 BECMG SCT015
13:00
I
7 °C 10 km+ 900 ft 030° 030° 3 kt METAR LFBD 301200Z AUTO 03003KT 010V070 9999 OVC009 07/05 Q1019 BECMG SCT015
12:30
I
6 °C 10 km+ 700 ft 090° 090° 6 kt METAR LFBD 301130Z AUTO 09006KT 040V120 9999 OVC007 06/05 Q1019 BECMG SCT010
12:00
I
5 °C 10 km+ 500 ft 070° 070° 6 kt METAR LFBD 301100Z AUTO 07006KT 9999 BKN005 05/04 Q1020 NOSIG
11:30
L
4 °C 10 km+ 400 ft 070° 070° 6 kt METAR LFBD 301030Z AUTO 07006KT 9999 OVC004 04/04 Q1020 BECMG BKN007
11:00
L
4 °C 9 km 300 ft 080° 080° 7 kt METAR LFBD 301000Z AUTO 08007KT 9000 OVC003 04/04 Q1020 BECMG BKN007

We and third parties follow your internet behavior on our website with cookies. If you continue, we assume you agree with our cookie policy.